sensor_id;sensor_type;location;lat;lon;timestamp;P1;durP1;ratioP1;P2;durP2;ratioP2
64282;SDS011;50497;50.720;-2.084;2023-04-25T00:00:22;15.95;;;5.72;;
64282;SDS011;50497;50.720;-2.084;2023-04-25T00:02:53;16.20;;;5.78;;
64282;SDS011;50497;50.720;-2.084;2023-04-25T00:05:26;15.07;;;5.50;;
64282;SDS011;50497;50.720;-2.084;2023-04-25T00:08:11;15.15;;;5.50;;
64282;SDS011;50497;50.720;-2.084;2023-04-25T00:10:39;15.25;;;5.85;;
64282;SDS011;50497;50.720;-2.084;2023-04-25T00:13:17;13.95;;;5.43;;
64282;SDS011;50497;50.720;-2.084;2023-04-25T00:15:44;15.95;;;6.03;;
64282;SDS011;50497;50.720;-2.084;2023-04-25T00:18:14;14.55;;;5.43;;
64282;SDS011;50497;50.720;-2.084;2023-04-25T00:20:45;16.25;;;5.40;;
64282;SDS011;50497;50.720;-2.084;2023-04-25T00:23:17;18.05;;;5.85;;
64282;SDS011;50497;50.720;-2.084;2023-04-25T00:25:50;15.95;;;5.70;;
64282;SDS011;50497;50.720;-2.084;2023-04-25T00:28:20;15.82;;;5.65;;
64282;SDS011;50497;50.720;-2.084;2023-04-25T00:30:54;14.40;;;5.47;;
64282;SDS011;50497;50.720;-2.084;2023-04-25T00:33:29;17.48;;;5.70;;
64282;SDS011;50497;50.720;-2.084;2023-04-25T00:36:06;15.73;;;5.47;;
64282;SDS011;50497;50.720;-2.084;2023-04-25T00:38:37;15.45;;;5.95;;
64282;SDS011;50497;50.720;-2.084;2023-04-25T00:41:09;16.40;;;5.95;;
64282;SDS011;50497;50.720;-2.084;2023-04-25T00:43:43;16.23;;;5.93;;
64282;SDS011;50497;50.720;-2.084;2023-04-25T00:46:16;15.27;;;5.72;;
64282;SDS011;50497;50.720;-2.084;2023-04-25T00:48:52;14.38;;;5.47;;
64282;SDS011;50497;50.720;-2.084;2023-04-25T00:51:24;15.90;;;5.88;;
64282;SDS011;50497;50.720;-2.084;2023-04-25T00:53:55;18.20;;;5.97;;
64282;SDS011;50497;50.720;-2.084;2023-04-25T00:56:34;16.92;;;5.78;;
64282;SDS011;50497;50.720;-2.084;2023-04-25T00:59:11;13.90;;;5.18;;
64282;SDS011;50497;50.720;-2.084;2023-04-25T01:01:43;16.80;;;6.03;;
64282;SDS011;50497;50.720;-2.084;2023-04-25T01:04:16;14.55;;;5.57;;
64282;SDS011;50497;50.720;-2.084;2023-04-25T01:06:52;16.48;;;5.90;;
64282;SDS011;50497;50.720;-2.084;2023-04-25T01:09:29;15.80;;;5.18;;
64282;SDS011;50497;50.720;-2.084;2023-04-25T01:11:59;14.27;;;5.60;;
64282;SDS011;50497;50.720;-2.084;2023-04-25T01:14:33;14.13;;;5.85;;
64282;SDS011;50497;50.720;-2.084;2023-04-25T01:17:08;16.60;;;5.78;;
64282;SDS011;50497;50.720;-2.084;2023-04-25T01:19:38;18.88;;;5.55;;
64282;SDS011;50497;50.720;-2.084;2023-04-25T01:22:13;17.58;;;5.80;;
64282;SDS011;50497;50.720;-2.084;2023-04-25T01:24:51;20.23;;;5.90;;
64282;SDS011;50497;50.720;-2.084;2023-04-25T01:27:31;19.70;;;5.85;;
64282;SDS011;50497;50.720;-2.084;2023-04-25T01:30:06;16.25;;;5.80;;
64282;SDS011;50497;50.720;-2.084;2023-04-25T01:32:41;15.77;;;5.35;;
64282;SDS011;50497;50.720;-2.084;2023-04-25T01:35:12;16.25;;;5.18;;
64282;SDS011;50497;50.720;-2.084;2023-04-25T01:37:49;13.50;;;5.43;;
64282;SDS011;50497;50.720;-2.084;2023-04-25T01:40:19;15.80;;;5.22;;
64282;SDS011;50497;50.720;-2.084;2023-04-25T01:42:54;16.85;;;5.60;;
64282;SDS011;50497;50.720;-2.084;2023-04-25T01:45:26;15.20;;;5.57;;
64282;SDS011;50497;50.720;-2.084;2023-04-25T01:47:58;16.17;;;5.22;;
64282;SDS011;50497;50.720;-2.084;2023-04-25T01:50:28;15.93;;;5.45;;
64282;SDS011;50497;50.720;-2.084;2023-04-25T01:53:04;16.80;;;5.80;;
64282;SDS011;50497;50.720;-2.084;2023-04-25T01:55:36;15.60;;;5.07;;
64282;SDS011;50497;50.720;-2.084;2023-04-25T01:58:15;17.50;;;5.32;;
64282;SDS011;50497;50.720;-2.084;2023-04-25T02:00:47;16.42;;;5.93;;
64282;SDS011;50497;50.720;-2.084;2023-04-25T02:03:21;20.35;;;5.70;;
64282;SDS011;50497;50.720;-2.084;2023-04-25T02:05:52;17.38;;;5.40;;
64282;SDS011;50497;50.720;-2.084;2023-04-25T02:08:25;17.23;;;5.60;;
64282;SDS011;50497;50.720;-2.084;2023-04-25T02:10:57;16.42;;;5.63;;
64282;SDS011;50497;50.720;-2.084;2023-04-25T02:13:26;17.67;;;5.20;;
64282;SDS011;50497;50.720;-2.084;2023-04-25T02:16:00;16.63;;;5.30;;
64282;SDS011;50497;50.720;-2.084;2023-04-25T02:18:37;17.02;;;5.50;;
64282;SDS011;50497;50.720;-2.084;2023-04-25T02:21:05;17.08;;;5.28;;
64282;SDS011;50497;50.720;-2.084;2023-04-25T02:23:33;14.45;;;5.50;;
64282;SDS011;50497;50.720;-2.084;2023-04-25T02:26:05;15.00;;;5.38;;
64282;SDS011;50497;50.720;-2.084;2023-04-25T02:28:39;17.15;;;5.45;;
64282;SDS011;50497;50.720;-2.084;2023-04-25T02:31:05;16.38;;;5.00;;
64282;SDS011;50497;50.720;-2.084;2023-04-25T02:33:32;17.88;;;5.35;;
64282;SDS011;50497;50.720;-2.084;2023-04-25T02:36:01;14.55;;;5.25;;
64282;SDS011;50497;50.720;-2.084;2023-04-25T02:38:30;17.05;;;5.13;;
64282;SDS011;50497;50.720;-2.084;2023-04-25T02:41:01;20.23;;;4.93;;
64282;SDS011;50497;50.720;-2.084;2023-04-25T02:43:33;18.05;;;5.90;;
64282;SDS011;50497;50.720;-2.084;2023-04-25T02:46:02;17.60;;;5.25;;
64282;SDS011;50497;50.720;-2.084;2023-04-25T02:48:28;17.67;;;5.43;;
64282;SDS011;50497;50.720;-2.084;2023-04-25T02:50:54;15.38;;;5.03;;
64282;SDS011;50497;50.720;-2.084;2023-04-25T02:53:27;18.85;;;5.10;;
64282;SDS011;50497;50.720;-2.084;2023-04-25T02:55:55;13.43;;;4.70;;
64282;SDS011;50497;50.720;-2.084;2023-04-25T02:58:25;14.65;;;4.85;;
64282;SDS011;50497;50.720;-2.084;2023-04-25T03:01:01;12.38;;;4.60;;
64282;SDS011;50497;50.720;-2.084;2023-04-25T03:03:34;19.33;;;5.25;;
64282;SDS011;50497;50.720;-2.084;2023-04-25T03:06:04;13.13;;;4.22;;
64282;SDS011;50497;50.720;-2.084;2023-04-25T03:08:36;14.98;;;4.82;;
64282;SDS011;50497;50.720;-2.084;2023-04-25T03:11:07;16.63;;;5.10;;
64282;SDS011;50497;50.720;-2.084;2023-04-25T03:13:33;17.23;;;4.63;;
64282;SDS011;50497;50.720;-2.084;2023-04-25T03:16:03;15.88;;;4.72;;
64282;SDS011;50497;50.720;-2.084;2023-04-25T03:18:35;17.23;;;4.63;;
64282;SDS011;50497;50.720;-2.084;2023-04-25T03:21:06;16.25;;;4.80;;
64282;SDS011;50497;50.720;-2.084;2023-04-25T03:23:37;12.70;;;4.90;;
64282;SDS011;50497;50.720;-2.084;2023-04-25T03:26:05;16.45;;;5.57;;
64282;SDS011;50497;50.720;-2.084;2023-04-25T03:28:35;18.38;;;5.15;;
64282;SDS011;50497;50.720;-2.084;2023-04-25T03:31:00;14.52;;;4.82;;
64282;SDS011;50497;50.720;-2.084;2023-04-25T03:33:32;14.80;;;4.82;;
64282;SDS011;50497;50.720;-2.084;2023-04-25T03:35:59;12.23;;;4.45;;
64282;SDS011;50497;50.720;-2.084;2023-04-25T03:38:32;15.77;;;5.20;;
64282;SDS011;50497;50.720;-2.084;2023-04-25T03:40:57;14.85;;;4.68;;
64282;SDS011;50497;50.720;-2.084;2023-04-25T03:43:32;14.18;;;4.45;;
64282;SDS011;50497;50.720;-2.084;2023-04-25T03:46:08;18.08;;;4.65;;
64282;SDS011;50497;50.720;-2.084;2023-04-25T03:48:42;16.70;;;5.05;;
64282;SDS011;50497;50.720;-2.084;2023-04-25T03:51:08;17.70;;;5.20;;
64282;SDS011;50497;50.720;-2.084;2023-04-25T03:53:33;13.65;;;4.25;;
64282;SDS011;50497;50.720;-2.084;2023-04-25T03:56:04;14.20;;;4.63;;
64282;SDS011;50497;50.720;-2.084;2023-04-25T03:58:38;15.25;;;4.53;;
64282;SDS011;50497;50.720;-2.084;2023-04-25T04:01:10;15.90;;;5.13;;
64282;SDS011;50497;50.720;-2.084;2023-04-25T04:03:36;16.45;;;5.97;;
64282;SDS011;50497;50.720;-2.084;2023-04-25T04:06:02;20.25;;;4.82;;
64282;SDS011;50497;50.720;-2.084;2023-04-25T04:08:32;15.35;;;4.50;;
64282;SDS011;50497;50.720;-2.084;2023-04-25T04:11:01;18.95;;;5.13;;
64282;SDS011;50497;50.720;-2.084;2023-04-25T04:13:27;18.88;;;5.15;;
64282;SDS011;50497;50.720;-2.084;2023-04-25T04:15:56;13.48;;;4.82;;
64282;SDS011;50497;50.720;-2.084;2023-04-25T04:18:22;13.50;;;4.80;;
64282;SDS011;50497;50.720;-2.084;2023-04-25T04:20:54;15.45;;;4.90;;
64282;SDS011;50497;50.720;-2.084;2023-04-25T04:23:20;17.25;;;4.82;;
64282;SDS011;50497;50.720;-2.084;2023-04-25T04:25:49;13.73;;;4.38;;
64282;SDS011;50497;50.720;-2.084;2023-04-25T04:28:14;15.50;;;4.90;;
64282;SDS011;50497;50.720;-2.084;2023-04-25T04:30:44;19.10;;;5.40;;
64282;SDS011;50497;50.720;-2.084;2023-04-25T04:33:15;15.05;;;4.03;;
64282;SDS011;50497;50.720;-2.084;2023-04-25T04:35:43;15.20;;;4.07;;
64282;SDS011;50497;50.720;-2.084;2023-04-25T04:38:08;13.20;;;4.53;;
64282;SDS011;50497;50.720;-2.084;2023-04-25T04:40:35;13.30;;;4.28;;
64282;SDS011;50497;50.720;-2.084;2023-04-25T04:43:04;15.93;;;4.57;;
64282;SDS011;50497;50.720;-2.084;2023-04-25T04:45:30;17.15;;;4.40;;
64282;SDS011;50497;50.720;-2.084;2023-04-25T04:47:56;14.48;;;4.30;;
64282;SDS011;50497;50.720;-2.084;2023-04-25T04:50:25;12.70;;;3.90;;
64282;SDS011;50497;50.720;-2.084;2023-04-25T04:52:57;15.38;;;4.40;;
64282;SDS011;50497;50.720;-2.084;2023-04-25T04:55:23;11.82;;;3.75;;
64282;SDS011;50497;50.720;-2.084;2023-04-25T04:57:52;12.88;;;4.20;;
64282;SDS011;50497;50.720;-2.084;2023-04-25T05:00:20;14.35;;;4.30;;
64282;SDS011;50497;50.720;-2.084;2023-04-25T05:02:50;13.65;;;4.32;;
64282;SDS011;50497;50.720;-2.084;2023-04-25T05:05:19;13.02;;;3.78;;
64282;SDS011;50497;50.720;-2.084;2023-04-25T05:07:44;11.23;;;3.65;;
64282;SDS011;50497;50.720;-2.084;2023-04-25T05:10:13;14.10;;;3.70;;
64282;SDS011;50497;50.720;-2.084;2023-04-25T05:12:39;14.55;;;3.83;;
64282;SDS011;50497;50.720;-2.084;2023-04-25T05:15:04;12.95;;;3.70;;
64282;SDS011;50497;50.720;-2.084;2023-04-25T05:17:30;11.32;;;3.33;;
64282;SDS011;50497;50.720;-2.084;2023-04-25T05:19:59;10.63;;;3.55;;
64282;SDS011;50497;50.720;-2.084;2023-04-25T05:22:24;12.60;;;3.45;;
64282;SDS011;50497;50.720;-2.084;2023-04-25T05:24:53;11.98;;;3.65;;
64282;SDS011;50497;50.720;-2.084;2023-04-25T05:27:24;12.95;;;3.20;;
64282;SDS011;50497;50.720;-2.084;2023-04-25T05:29:49;13.52;;;3.50;;
64282;SDS011;50497;50.720;-2.084;2023-04-25T05:32:18;8.18;;;3.00;;
64282;SDS011;50497;50.720;-2.084;2023-04-25T05:34:43;10.70;;;3.13;;
64282;SDS011;50497;50.720;-2.084;2023-04-25T05:37:09;11.27;;;3.20;;
64282;SDS011;50497;50.720;-2.084;2023-04-25T05:39:35;14.40;;;3.72;;
64282;SDS011;50497;50.720;-2.084;2023-04-25T05:42:03;10.80;;;3.65;;
64282;SDS011;50497;50.720;-2.084;2023-04-25T05:44:32;9.77;;;3.40;;
64282;SDS011;50497;50.720;-2.084;2023-04-25T05:46:58;14.85;;;4.45;;
64282;SDS011;50497;50.720;-2.084;2023-04-25T05:49:24;12.30;;;3.30;;
64282;SDS011;50497;50.720;-2.084;2023-04-25T05:51:56;8.75;;;2.80;;
64282;SDS011;50497;50.720;-2.084;2023-04-25T05:54:25;9.43;;;3.13;;
64282;SDS011;50497;50.720;-2.084;2023-04-25T05:56:56;10.35;;;2.90;;
64282;SDS011;50497;50.720;-2.084;2023-04-25T05:59:24;14.45;;;3.80;;
64282;SDS011;50497;50.720;-2.084;2023-04-25T06:01:53;14.20;;;3.25;;
64282;SDS011;50497;50.720;-2.084;2023-04-25T06:04:22;10.68;;;3.15;;
64282;SDS011;50497;50.720;-2.084;2023-04-25T06:06:52;10.75;;;3.00;;
64282;SDS011;50497;50.720;-2.084;2023-04-25T06:09:24;11.98;;;3.38;;
64282;SDS011;50497;50.720;-2.084;2023-04-25T06:11:53;14.43;;;3.60;;
64282;SDS011;50497;50.720;-2.084;2023-04-25T06:14:23;12.10;;;3.40;;
64282;SDS011;50497;50.720;-2.084;2023-04-25T06:16:52;11.75;;;3.40;;
64282;SDS011;50497;50.720;-2.084;2023-04-25T06:19:22;11.20;;;3.33;;
64282;SDS011;50497;50.720;-2.084;2023-04-25T06:21:52;12.18;;;3.35;;
64282;SDS011;50497;50.720;-2.084;2023-04-25T06:24:18;13.52;;;3.33;;
64282;SDS011;50497;50.720;-2.084;2023-04-25T06:26:47;9.32;;;2.90;;
64282;SDS011;50497;50.720;-2.084;2023-04-25T06:29:17;11.93;;;2.95;;
64282;SDS011;50497;50.720;-2.084;2023-04-25T06:31:45;10.75;;;2.47;;
64282;SDS011;50497;50.720;-2.084;2023-04-25T06:34:14;7.82;;;2.15;;
64282;SDS011;50497;50.720;-2.084;2023-04-25T06:36:43;11.45;;;2.60;;
64282;SDS011;50497;50.720;-2.084;2023-04-25T06:39:20;9.45;;;2.78;;
64282;SDS011;50497;50.720;-2.084;2023-04-25T06:41:51;6.45;;;1.80;;
64282;SDS011;50497;50.720;-2.084;2023-04-25T06:44:18;11.40;;;2.70;;
64282;SDS011;50497;50.720;-2.084;2023-04-25T06:46:51;5.75;;;1.77;;
64282;SDS011;50497;50.720;-2.084;2023-04-25T06:49:17;9.13;;;2.28;;
64282;SDS011;50497;50.720;-2.084;2023-04-25T06:51:46;9.52;;;2.35;;
64282;SDS011;50497;50.720;-2.084;2023-04-25T06:54:12;5.20;;;1.70;;
64282;SDS011;50497;50.720;-2.084;2023-04-25T06:56:38;5.97;;;1.80;;
64282;SDS011;50497;50.720;-2.084;2023-04-25T06:59:14;8.43;;;2.30;;
64282;SDS011;50497;50.720;-2.084;2023-04-25T07:01:44;8.48;;;2.00;;
64282;SDS011;50497;50.720;-2.084;2023-04-25T07:04:12;6.70;;;2.05;;
64282;SDS011;50497;50.720;-2.084;2023-04-25T07:06:42;8.70;;;2.10;;
64282;SDS011;50497;50.720;-2.084;2023-04-25T07:09:29;6.00;;;2.00;;
64282;SDS011;50497;50.720;-2.084;2023-04-25T07:12:02;6.80;;;2.00;;
64282;SDS011;50497;50.720;-2.084;2023-04-25T07:14:35;10.35;;;2.20;;
64282;SDS011;50497;50.720;-2.084;2023-04-25T07:17:06;9.95;;;2.28;;
64282;SDS011;50497;50.720;-2.084;2023-04-25T07:19:40;6.00;;;1.92;;
64282;SDS011;50497;50.720;-2.084;2023-04-25T07:22:10;7.32;;;1.83;;
64282;SDS011;50497;50.720;-2.084;2023-04-25T07:24:45;10.00;;;2.20;;
64282;SDS011;50497;50.720;-2.084;2023-04-25T07:27:19;6.80;;;1.80;;
64282;SDS011;50497;50.720;-2.084;2023-04-25T07:29:49;7.90;;;1.77;;
64282;SDS011;50497;50.720;-2.084;2023-04-25T07:32:15;7.32;;;2.00;;
64282;SDS011;50497;50.720;-2.084;2023-04-25T07:34:44;6.55;;;1.58;;
64282;SDS011;50497;50.720;-2.084;2023-04-25T07:37:10;9.32;;;2.30;;
64282;SDS011;50497;50.720;-2.084;2023-04-25T07:39:39;7.97;;;1.90;;
64282;SDS011;50497;50.720;-2.084;2023-04-25T07:42:04;7.78;;;1.80;;
64282;SDS011;50497;50.720;-2.084;2023-04-25T07:44:33;9.98;;;2.08;;
64282;SDS011;50497;50.720;-2.084;2023-04-25T07:47:06;8.45;;;2.10;;
64282;SDS011;50497;50.720;-2.084;2023-04-25T07:49:33;8.45;;;2.03;;
64282;SDS011;50497;50.720;-2.084;2023-04-25T07:51:59;7.22;;;1.85;;
64282;SDS011;50497;50.720;-2.084;2023-04-25T07:54:25;6.97;;;1.90;;
64282;SDS011;50497;50.720;-2.084;2023-04-25T07:57:01;8.35;;;1.85;;
64282;SDS011;50497;50.720;-2.084;2023-04-25T07:59:32;6.75;;;1.98;;
64282;SDS011;50497;50.720;-2.084;2023-04-25T08:01:58;5.43;;;1.60;;
64282;SDS011;50497;50.720;-2.084;2023-04-25T08:04:24;5.15;;;1.50;;
64282;SDS011;50497;50.720;-2.084;2023-04-25T08:06:56;7.28;;;2.05;;
64282;SDS011;50497;50.720;-2.084;2023-04-25T08:09:26;10.18;;;2.53;;
64282;SDS011;50497;50.720;-2.084;2023-04-25T08:11:51;6.15;;;1.50;;
64282;SDS011;50497;50.720;-2.084;2023-04-25T08:14:17;7.78;;;1.95;;
64282;SDS011;50497;50.720;-2.084;2023-04-25T08:16:44;9.63;;;1.90;;
64282;SDS011;50497;50.720;-2.084;2023-04-25T08:19:13;7.90;;;2.00;;
64282;SDS011;50497;50.720;-2.084;2023-04-25T08:21:48;8.75;;;2.00;;
64282;SDS011;50497;50.720;-2.084;2023-04-25T08:24:20;6.03;;;1.60;;
64282;SDS011;50497;50.720;-2.084;2023-04-25T08:26:52;10.73;;;2.30;;
64282;SDS011;50497;50.720;-2.084;2023-04-25T08:29:35;5.60;;;1.77;;
64282;SDS011;50497;50.720;-2.084;2023-04-25T08:32:03;7.10;;;1.80;;
64282;SDS011;50497;50.720;-2.084;2023-04-25T08:34:32;5.30;;;1.60;;
64282;SDS011;50497;50.720;-2.084;2023-04-25T08:37:07;6.82;;;1.80;;
64282;SDS011;50497;50.720;-2.084;2023-04-25T08:39:36;6.47;;;1.85;;
64282;SDS011;50497;50.720;-2.084;2023-04-25T08:42:07;4.70;;;1.65;;
64282;SDS011;50497;50.720;-2.084;2023-04-25T08:44:39;6.97;;;2.20;;
64282;SDS011;50497;50.720;-2.084;2023-04-25T08:47:11;8.43;;;2.40;;
64282;SDS011;50497;50.720;-2.084;2023-04-25T08:49:36;7.47;;;2.42;;
64282;SDS011;50497;50.720;-2.084;2023-04-25T08:52:04;7.35;;;2.60;;
64282;SDS011;50497;50.720;-2.084;2023-04-25T08:54:37;8.15;;;2.53;;
64282;SDS011;50497;50.720;-2.084;2023-04-25T08:57:09;6.35;;;2.20;;
64282;SDS011;50497;50.720;-2.084;2023-04-25T08:59:35;6.78;;;2.20;;
64282;SDS011;50497;50.720;-2.084;2023-04-25T09:02:04;7.47;;;2.30;;
64282;SDS011;50497;50.720;-2.084;2023-04-25T09:04:34;4.97;;;1.70;;
64282;SDS011;50497;50.720;-2.084;2023-04-25T09:07:05;6.78;;;2.00;;
64282;SDS011;50497;50.720;-2.084;2023-04-25T09:09:35;5.55;;;1.70;;
64282;SDS011;50497;50.720;-2.084;2023-04-25T09:12:01;4.60;;;1.55;;
64282;SDS011;50497;50.720;-2.084;2023-04-25T09:14:27;5.93;;;1.80;;
64282;SDS011;50497;50.720;-2.084;2023-04-25T09:19:32;2.92;;;1.33;;
64282;SDS011;50497;50.720;-2.084;2023-04-25T09:27:11;6.32;;;1.90;;
64282;SDS011;50497;50.720;-2.084;2023-04-25T09:29:42;5.47;;;1.75;;
64282;SDS011;50497;50.720;-2.084;2023-04-25T09:34:44;5.20;;;1.50;;
64282;SDS011;50497;50.720;-2.084;2023-04-25T09:39:50;4.82;;;1.52;;
64282;SDS011;50497;50.720;-2.084;2023-04-25T09:42:21;5.32;;;1.70;;
64282;SDS011;50497;50.720;-2.084;2023-04-25T09:44:56;5.55;;;1.55;;
64282;SDS011;50497;50.720;-2.084;2023-04-25T09:47:25;4.78;;;1.52;;
64282;SDS011;50497;50.720;-2.084;2023-04-25T09:49:58;4.72;;;1.55;;
64282;SDS011;50497;50.720;-2.084;2023-04-25T09:52:26;6.43;;;1.60;;
64282;SDS011;50497;50.720;-2.084;2023-04-25T09:54:59;5.03;;;1.70;;
64282;SDS011;50497;50.720;-2.084;2023-04-25T09:57:33;5.63;;;1.67;;
64282;SDS011;50497;50.720;-2.084;2023-04-25T10:00:16;3.90;;;1.40;;
64282;SDS011;50497;50.720;-2.084;2023-04-25T10:02:47;5.97;;;1.75;;
64282;SDS011;50497;50.720;-2.084;2023-04-25T10:05:13;6.35;;;1.90;;
64282;SDS011;50497;50.720;-2.084;2023-04-25T10:07:40;6.40;;;1.90;;
64282;SDS011;50497;50.720;-2.084;2023-04-25T10:10:11;5.47;;;1.80;;
64282;SDS011;50497;50.720;-2.084;2023-04-25T10:12:38;4.20;;;1.42;;
64282;SDS011;50497;50.720;-2.084;2023-04-25T10:17:41;6.95;;;1.83;;
64282;SDS011;50497;50.720;-2.084;2023-04-25T10:20:21;6.18;;;1.35;;
64282;SDS011;50497;50.720;-2.084;2023-04-25T10:22:51;4.80;;;1.85;;
64282;SDS011;50497;50.720;-2.084;2023-04-25T10:25:19;3.30;;;1.45;;
64282;SDS011;50497;50.720;-2.084;2023-04-25T10:27:51;6.13;;;1.50;;
64282;SDS011;50497;50.720;-2.084;2023-04-25T10:30:21;4.85;;;1.58;;
64282;SDS011;50497;50.720;-2.084;2023-04-25T10:32:51;5.15;;;1.70;;
64282;SDS011;50497;50.720;-2.084;2023-04-25T10:35:43;5.18;;;1.85;;
64282;SDS011;50497;50.720;-2.084;2023-04-25T10:38:15;4.53;;;1.50;;
64282;SDS011;50497;50.720;-2.084;2023-04-25T10:44:17;5.45;;;1.50;;
64282;SDS011;50497;50.720;-2.084;2023-04-25T10:46:49;6.43;;;1.70;;
64282;SDS011;50497;50.720;-2.084;2023-04-25T10:54:51;4.90;;;1.40;;
64282;SDS011;50497;50.720;-2.084;2023-04-25T10:57:31;4.15;;;1.40;;
64282;SDS011;50497;50.720;-2.084;2023-04-25T11:00:05;3.65;;;1.40;;
64282;SDS011;50497;50.720;-2.084;2023-04-25T11:02:42;3.75;;;1.30;;
64282;SDS011;50497;50.720;-2.084;2023-04-25T11:05:25;4.65;;;1.48;;
64282;SDS011;50497;50.720;-2.084;2023-04-25T11:08:18;4.50;;;1.60;;
64282;SDS011;50497;50.720;-2.084;2023-04-25T11:11:11;5.25;;;1.60;;
64282;SDS011;50497;50.720;-2.084;2023-04-25T11:13:37;4.03;;;1.45;;
64282;SDS011;50497;50.720;-2.084;2023-04-25T11:16:24;5.88;;;1.70;;
64282;SDS011;50497;50.720;-2.084;2023-04-25T11:18:57;3.15;;;1.30;;
64282;SDS011;50497;50.720;-2.084;2023-04-25T11:21:27;5.38;;;1.50;;
64282;SDS011;50497;50.720;-2.084;2023-04-25T11:23:59;6.10;;;1.70;;
64282;SDS011;50497;50.720;-2.084;2023-04-25T11:26:34;4.88;;;1.52;;
64282;SDS011;50497;50.720;-2.084;2023-04-25T11:31:34;4.90;;;1.60;;
64282;SDS011;50497;50.720;-2.084;2023-04-25T11:34:07;4.97;;;1.35;;
64282;SDS011;50497;50.720;-2.084;2023-04-25T11:36:33;5.13;;;1.65;;
64282;SDS011;50497;50.720;-2.084;2023-04-25T11:39:02;6.80;;;1.70;;
64282;SDS011;50497;50.720;-2.084;2023-04-25T11:41:28;5.20;;;1.65;;
64282;SDS011;50497;50.720;-2.084;2023-04-25T11:43:56;5.57;;;1.60;;
64282;SDS011;50497;50.720;-2.084;2023-04-25T11:46:25;5.47;;;1.50;;
64282;SDS011;50497;50.720;-2.084;2023-04-25T11:48:52;5.45;;;1.40;;
64282;SDS011;50497;50.720;-2.084;2023-04-25T11:51:27;4.68;;;1.52;;
64282;SDS011;50497;50.720;-2.084;2023-04-25T11:56:35;6.45;;;1.50;;
64282;SDS011;50497;50.720;-2.084;2023-04-25T11:59:10;5.35;;;1.60;;
64282;SDS011;50497;50.720;-2.084;2023-04-25T12:01:48;5.28;;;1.50;;
64282;SDS011;50497;50.720;-2.084;2023-04-25T12:04:24;4.90;;;1.50;;
64282;SDS011;50497;50.720;-2.084;2023-04-25T12:06:59;4.90;;;1.65;;
64282;SDS011;50497;50.720;-2.084;2023-04-25T12:09:30;4.55;;;1.55;;
64282;SDS011;50497;50.720;-2.084;2023-04-25T12:11:57;6.68;;;1.92;;
64282;SDS011;50497;50.720;-2.084;2023-04-25T12:14:33;5.30;;;1.70;;
64282;SDS011;50497;50.720;-2.084;2023-04-25T12:17:03;4.93;;;1.70;;
64282;SDS011;50497;50.720;-2.084;2023-04-25T12:19:37;5.43;;;1.67;;
64282;SDS011;50497;50.720;-2.084;2023-04-25T12:22:18;6.25;;;1.63;;
64282;SDS011;50497;50.720;-2.084;2023-04-25T12:24:45;4.95;;;1.60;;
64282;SDS011;50497;50.720;-2.084;2023-04-25T12:27:21;5.03;;;1.58;;
64282;SDS011;50497;50.720;-2.084;2023-04-25T12:29:54;6.95;;;1.60;;
64282;SDS011;50497;50.720;-2.084;2023-04-25T12:32:34;4.80;;;1.45;;
64282;SDS011;50497;50.720;-2.084;2023-04-25T12:35:03;4.45;;;1.40;;
64282;SDS011;50497;50.720;-2.084;2023-04-25T12:37:36;4.60;;;1.50;;
64282;SDS011;50497;50.720;-2.084;2023-04-25T12:40:06;6.43;;;1.70;;
64282;SDS011;50497;50.720;-2.084;2023-04-25T12:42:32;4.97;;;1.50;;
64282;SDS011;50497;50.720;-2.084;2023-04-25T12:45:03;5.95;;;1.77;;
64282;SDS011;50497;50.720;-2.084;2023-04-25T12:47:35;4.40;;;1.50;;
64282;SDS011;50497;50.720;-2.084;2023-04-25T12:50:10;5.32;;;1.73;;
64282;SDS011;50497;50.720;-2.084;2023-04-25T12:52:39;6.90;;;1.50;;
64282;SDS011;50497;50.720;-2.084;2023-04-25T12:55:12;4.50;;;1.52;;
64282;SDS011;50497;50.720;-2.084;2023-04-25T12:57:40;6.18;;;1.48;;
64282;SDS011;50497;50.720;-2.084;2023-04-25T13:00:05;6.00;;;1.73;;
64282;SDS011;50497;50.720;-2.084;2023-04-25T13:02:38;5.85;;;1.60;;
64282;SDS011;50497;50.720;-2.084;2023-04-25T13:05:11;5.25;;;1.50;;
64282;SDS011;50497;50.720;-2.084;2023-04-25T13:07:38;5.72;;;1.65;;
64282;SDS011;50497;50.720;-2.084;2023-04-25T13:10:03;4.68;;;1.70;;
64282;SDS011;50497;50.720;-2.084;2023-04-25T13:12:34;4.28;;;1.50;;
64282;SDS011;50497;50.720;-2.084;2023-04-25T13:15:08;5.47;;;1.55;;
64282;SDS011;50497;50.720;-2.084;2023-04-25T13:20:06;6.22;;;1.60;;
64282;SDS011;50497;50.720;-2.084;2023-04-25T13:22:38;6.95;;;1.60;;
64282;SDS011;50497;50.720;-2.084;2023-04-25T13:25:10;7.60;;;1.88;;
64282;SDS011;50497;50.720;-2.084;2023-04-25T13:27:40;4.55;;;1.65;;
64282;SDS011;50497;50.720;-2.084;2023-04-25T13:30:06;5.13;;;1.70;;
64282;SDS011;50497;50.720;-2.084;2023-04-25T13:32:33;5.93;;;1.73;;
64282;SDS011;50497;50.720;-2.084;2023-04-25T13:35:12;5.53;;;1.55;;
64282;SDS011;50497;50.720;-2.084;2023-04-25T13:37:39;7.53;;;1.67;;
64282;SDS011;50497;50.720;-2.084;2023-04-25T13:40:06;4.90;;;1.50;;
64282;SDS011;50497;50.720;-2.084;2023-04-25T13:42:34;5.85;;;1.60;;
64282;SDS011;50497;50.720;-2.084;2023-04-25T13:45:11;4.97;;;1.70;;
64282;SDS011;50497;50.720;-2.084;2023-04-25T13:47:40;5.10;;;1.60;;
64282;SDS011;50497;50.720;-2.084;2023-04-25T13:50:13;6.55;;;1.85;;
64282;SDS011;50497;50.720;-2.084;2023-04-25T13:52:44;4.25;;;1.67;;
64282;SDS011;50497;50.720;-2.084;2023-04-25T13:55:10;4.90;;;1.42;;
64282;SDS011;50497;50.720;-2.084;2023-04-25T13:57:38;6.00;;;1.88;;
64282;SDS011;50497;50.720;-2.084;2023-04-25T14:00:10;6.25;;;1.55;;
64282;SDS011;50497;50.720;-2.084;2023-04-25T14:02:36;6.75;;;1.95;;
64282;SDS011;50497;50.720;-2.084;2023-04-25T14:05:06;6.13;;;1.70;;
64282;SDS011;50497;50.720;-2.084;2023-04-25T14:07:42;5.65;;;1.88;;
64282;SDS011;50497;50.720;-2.084;2023-04-25T14:10:11;5.00;;;1.70;;
64282;SDS011;50497;50.720;-2.084;2023-04-25T14:12:41;5.13;;;1.73;;
64282;SDS011;50497;50.720;-2.084;2023-04-25T14:15:09;5.20;;;1.60;;
64282;SDS011;50497;50.720;-2.084;2023-04-25T14:17:36;5.75;;;1.60;;
64282;SDS011;50497;50.720;-2.084;2023-04-25T14:20:08;5.38;;;1.80;;
64282;SDS011;50497;50.720;-2.084;2023-04-25T14:22:37;6.13;;;1.58;;
64282;SDS011;50497;50.720;-2.084;2023-04-25T14:25:08;7.80;;;1.98;;
64282;SDS011;50497;50.720;-2.084;2023-04-25T14:27:40;7.25;;;1.73;;
64282;SDS011;50497;50.720;-2.084;2023-04-25T14:30:06;6.10;;;1.80;;
64282;SDS011;50497;50.720;-2.084;2023-04-25T14:32:36;6.40;;;1.70;;
64282;SDS011;50497;50.720;-2.084;2023-04-25T14:37:37;5.57;;;1.70;;
64282;SDS011;50497;50.720;-2.084;2023-04-25T14:40:07;5.38;;;1.83;;
64282;SDS011;50497;50.720;-2.084;2023-04-25T14:42:40;5.25;;;1.52;;
64282;SDS011;50497;50.720;-2.084;2023-04-25T14:45:13;8.18;;;1.77;;
64282;SDS011;50497;50.720;-2.084;2023-04-25T14:47:42;7.32;;;1.80;;
64282;SDS011;50497;50.720;-2.084;2023-04-25T14:50:11;8.00;;;1.70;;
64282;SDS011;50497;50.720;-2.084;2023-04-25T14:52:40;6.63;;;1.60;;
64282;SDS011;50497;50.720;-2.084;2023-04-25T14:55:10;5.07;;;1.80;;
64282;SDS011;50497;50.720;-2.084;2023-04-25T14:57:40;4.95;;;1.50;;
64282;SDS011;50497;50.720;-2.084;2023-04-25T15:00:06;6.10;;;1.73;;
64282;SDS011;50497;50.720;-2.084;2023-04-25T15:02:34;8.57;;;1.95;;
64282;SDS011;50497;50.720;-2.084;2023-04-25T15:05:04;4.82;;;1.60;;
64282;SDS011;50497;50.720;-2.084;2023-04-25T15:07:37;7.85;;;1.75;;
64282;SDS011;50497;50.720;-2.084;2023-04-25T15:10:09;9.30;;;1.73;;
64282;SDS011;50497;50.720;-2.084;2023-04-25T15:12:40;5.70;;;1.65;;
64282;SDS011;50497;50.720;-2.084;2023-04-25T15:15:10;8.10;;;1.73;;
64282;SDS011;50497;50.720;-2.084;2023-04-25T15:17:49;8.32;;;1.80;;
64282;SDS011;50497;50.720;-2.084;2023-04-25T15:20:17;6.05;;;1.60;;
64282;SDS011;50497;50.720;-2.084;2023-04-25T15:22:46;4.00;;;1.52;;